Time;durP1;ratioP1;P1;durP2;ratioP2;P2;SDS_P1;SDS_P2;PMS_P1;PMS_P2;Temp;Humidity;BMP_temperature;BMP_pressure;BME280_temperature;BME280_humidity;BME280_pressure;Samples;Min_cycle;Max_cycle;Signal;HPM_P1;HPM_P2
2022/06/20 00:01:25;;;;;;;11.90;6.00;;;;;;;14.78;84.67;100043.34;5100650;27;20485;-64
2022/06/20 00:03:52;;;;;;;11.87;5.80;;;;;;;14.68;83.91;100057.81;5083971;28;20436;-63
2022/06/20 00:06:22;;;;;;;14.20;6.20;;;;;;;14.67;84.34;100069.63;5090028;28;20494;-63
2022/06/20 00:08:51;;;;;;;6.23;5.37;;;;;;;14.81;83.61;100059.16;5100742;28;20510;-65
2022/06/20 00:11:19;;;;;;;8.40;6.00;;;;;;;14.72;84.35;100062.88;5100351;28;20542;-63
2022/06/20 00:13:50;;;;;;;10.33;5.50;;;;;;;14.67;84.57;100063.41;5101265;28;20474;-63
2022/06/20 00:16:18;;;;;;;7.57;5.90;;;;;;;14.75;83.48;100067.91;5075603;28;20475;-60
2022/06/20 00:18:46;;;;;;;7.30;6.23;;;;;;;14.73;82.92;100067.25;5099418;28;20443;-61
2022/06/20 00:21:14;;;;;;;8.43;5.90;;;;;;;14.61;84.17;100048.75;5101316;28;20509;-61
2022/06/20 00:23:42;;;;;;;10.70;6.27;;;;;;;14.63;84.96;100027.06;5101319;28;20439;-61
2022/06/20 00:26:10;;;;;;;8.17;5.70;;;;;;;14.63;84.51;100016.31;5099325;28;20573;-61
2022/06/20 00:28:37;;;;;;;7.60;6.20;;;;;;;14.74;84.48;100034.78;5100821;28;20467;-61
2022/06/20 00:31:04;;;;;;;13.13;6.73;;;;;;;14.74;84.41;100020.47;5099662;27;20524;-61
2022/06/20 00:33:31;;;;;;;8.30;6.00;;;;;;;14.68;84.41;100013.94;5099722;28;20510;-61
2022/06/20 00:35:58;;;;;;;8.97;6.10;;;;;;;14.74;84.30;100015.94;5093946;27;20507;-61
2022/06/20 00:38:25;;;;;;;9.47;6.80;;;;;;;14.77;84.78;100001.28;5080786;28;20992;-61
2022/06/20 00:40:55;;;;;;;7.37;5.93;;;;;;;14.80;84.77;100015.22;5088968;27;20848;-61
2022/06/20 00:43:25;;;;;;;14.00;6.57;;;;;;;14.69;84.61;100011.06;5094413;28;20459;-61
2022/06/20 00:45:54;;;;;;;7.93;6.20;;;;;;;14.71;85.13;100010.91;5068687;28;20463;-61
2022/06/20 00:48:24;;;;;;;13.03;7.10;;;;;;;14.65;84.62;100012.44;5100222;28;20462;-61
2022/06/20 00:50:56;;;;;;;9.73;6.43;;;;;;;14.77;83.50;100017.44;5100084;28;20484;-61
2022/06/20 00:53:28;;;;;;;8.03;6.00;;;;;;;14.74;83.06;100007.88;5100358;28;20488;-62
2022/06/20 00:55:58;;;;;;;16.07;6.77;;;;;;;14.61;83.46;99986.88;5094877;28;20475;-61
2022/06/20 00:58:30;;;;;;;8.90;6.00;;;;;;;14.48;84.52;99983.88;5088339;28;20458;-62
2022/06/20 01:00:59;;;;;;;7.63;6.17;;;;;;;14.68;84.95;100001.31;5087458;28;20475;-60
2022/06/20 01:03:27;;;;;;;8.07;6.37;;;;;;;14.73;85.03;100021.50;5083684;28;20459;-61
2022/06/20 01:05:57;;;;;;;7.23;5.73;;;;;;;14.74;85.38;100010.56;5099461;28;20517;-62
2022/06/20 01:08:26;;;;;;;9.00;6.80;;;;;;;14.78;85.42;100013.75;5100766;28;20439;-62
2022/06/20 01:10:55;;;;;;;9.93;7.03;;;;;;;14.68;85.38;100038.97;5099422;28;20547;-62
2022/06/20 01:13:24;;;;;;;7.73;6.70;;;;;;;14.69;85.20;100021.84;5099570;28;20479;-62
2022/06/20 01:15:54;;;;;;;9.97;7.37;;;;;;;14.44;84.77;99993.28;5098958;28;20466;-61
2022/06/20 01:18:23;;;;;;;8.73;6.43;;;;;;;14.52;84.57;99987.06;5099020;28;20502;-60
2022/06/20 01:20:52;;;;;;;14.20;8.07;;;;;;;14.47;84.14;99955.28;5096628;28;20483;-60
2022/06/20 01:23:29;;;;;;;10.00;7.40;;;;;;;14.43;83.99;99948.59;5081212;28;20810;-61
2022/06/20 01:26:09;;;;;;;8.20;6.73;;;;;;;14.58;83.41;99971.09;5086152;28;20463;-61
2022/06/20 01:28:39;;;;;;;7.40;6.43;;;;;;;14.60;83.36;99985.22;5086325;28;20443;-60
2022/06/20 01:31:07;;;;;;;11.03;7.10;;;;;;;14.54;84.11;99976.97;5098385;27;20467;-61
2022/06/20 01:33:34;;;;;;;8.03;7.20;;;;;;;14.31;84.55;99986.59;5098784;28;20508;-61
2022/06/20 01:38:46;;;;;;;10.17;6.57;;;;;;;14.68;84.61;100008.56;5098345;28;20963;-61
2022/06/20 01:44:02;;;;;;;13.13;7.60;;;;;;;14.66;84.18;100021.34;5100066;28;20485;-61
2022/06/20 01:46:30;;;;;;;10.87;7.07;;;;;;;14.59;83.87;100025.75;5097180;28;20544;-63
2022/06/20 01:49:00;;;;;;;13.53;7.23;;;;;;;14.59;83.81;100009.59;5099350;28;20451;-61
2022/06/20 01:51:30;;;;;;;15.07;7.07;;;;;;;14.28;83.33;99989.63;5099021;28;20471;-63
2022/06/20 01:53:57;;;;;;;12.20;6.10;;;;;;;14.26;84.26;99983.56;5098806;28;20459;-61
2022/06/20 01:56:25;;;;;;;8.47;6.20;;;;;;;14.50;83.89;100006.91;5099043;28;20497;-61
2022/06/20 01:58:56;;;;;;;6.83;5.80;;;;;;;14.51;82.90;100023.88;5099335;28;20458;-61
2022/06/20 02:01:24;;;;;;;8.60;6.23;;;;;;;14.47;82.33;100044.06;5097067;28;20508;-61
2022/06/20 02:03:50;;;;;;;10.77;5.37;;;;;;;14.21;82.12;100020.91;5099766;28;20947;-60
2022/06/20 02:06:18;;;;;;;8.43;5.67;;;;;;;13.88;83.38;99977.91;5098808;28;20600;-60
2022/06/20 02:08:49;;;;;;;7.47;5.00;;;;;;;14.02;83.19;99991.69;5098927;28;20461;-61
2022/06/20 02:11:19;;;;;;;7.60;5.00;;;;;;;14.21;83.12;100002.06;5098655;28;20486;-60
2022/06/20 02:13:49;;;;;;;7.40;5.60;;;;;;;14.06;82.95;100006.44;5099215;28;20431;-62
2022/06/20 02:16:18;;;;;;;10.27;5.07;;;;;;;14.21;82.79;100028.97;5096853;28;20506;-61
2022/06/20 02:18:48;;;;;;;7.67;4.00;;;;;;;14.36;82.48;100074.00;5098934;28;20458;-61
2022/06/20 02:21:17;;;;;;;10.00;5.57;;;;;;;14.31;82.61;100077.19;5099075;28;20466;-61
2022/06/20 02:23:48;;;;;;;5.37;4.03;;;;;;;14.23;83.03;100075.34;5097597;28;20695;-61
2022/06/20 02:26:15;;;;;;;6.53;4.30;;;;;;;14.23;82.84;100083.41;5099054;27;20498;-61
2022/06/20 02:28:48;;;;;;;6.20;4.30;;;;;;;14.25;83.23;100089.47;5090770;28;20502;-61
2022/06/20 02:31:14;;;;;;;5.70;4.10;;;;;;;14.29;81.90;100092.66;5088666;27;20912;-61
2022/06/20 02:33:41;;;;;;;3.63;2.97;;;;;;;14.35;81.83;100101.91;5092108;28;20488;-62
2022/06/20 02:36:09;;;;;;;8.43;4.07;;;;;;;14.26;81.40;100101.91;5087310;28;20475;-62
2022/06/20 02:38:36;;;;;;;11.53;3.83;;;;;;;14.27;81.24;100125.09;5097832;28;20494;-62
2022/06/20 02:41:03;;;;;;;7.17;3.60;;;;;;;14.16;81.15;100132.66;5098107;28;20490;-61
2022/06/20 02:43:32;;;;;;;5.63;3.20;;;;;;;14.19;81.33;100148.47;5098865;28;20450;-63
2022/06/20 02:45:59;;;;;;;8.03;3.40;;;;;;;14.18;81.01;100155.66;5096307;28;20479;-62
2022/06/20 02:48:29;;;;;;;8.03;3.60;;;;;;;14.18;80.75;100171.78;5099196;28;20442;-61
2022/06/20 02:50:58;;;;;;;7.30;3.30;;;;;;;14.04;81.92;100185.88;5098450;28;20501;-61
2022/06/20 02:53:39;;;;;;;5.37;3.03;;;;;;;13.87;82.75;100214.56;5098395;28;20435;-62
2022/06/20 02:56:06;;;;;;;7.10;3.50;;;;;;;13.61;83.23;100215.50;5098513;28;20508;-62
2022/06/20 02:58:35;;;;;;;12.90;3.80;;;;;;;13.70;83.30;100214.53;5098465;28;20517;-61
2022/06/20 03:01:05;;;;;;;8.43;4.00;;;;;;;13.71;83.08;100209.97;5097515;28;20532;-62
2022/06/20 03:03:33;;;;;;;8.47;4.40;;;;;;;13.70;82.37;100205.63;5099206;28;20474;-61
2022/06/20 03:06:00;;;;;;;12.00;3.80;;;;;;;13.73;83.32;100197.22;5098269;28;20475;-61
2022/06/20 03:08:28;;;;;;;5.30;3.57;;;;;;;13.76;82.79;100180.78;5094410;28;20467;-61
2022/06/20 03:10:57;;;;;;;11.77;5.30;;;;;;;13.98;80.91;100163.22;5091020;27;20498;-61
2022/06/20 03:13:24;;;;;;;5.13;3.60;;;;;;;14.17;80.81;100147.78;5094258;28;20507;-61
2022/06/20 03:15:51;;;;;;;6.43;3.23;;;;;;;14.05;81.89;100147.25;5083225;28;20475;-62
2022/06/20 03:18:19;;;;;;;10.73;4.07;;;;;;;14.18;81.01;100142.22;5098331;28;20494;-61
2022/06/20 03:20:46;;;;;;;7.97;3.53;;;;;;;14.11;80.28;100134.00;5093518;28;20475;-62
2022/06/20 03:23:17;;;;;;;5.70;3.57;;;;;;;14.28;79.87;100129.44;5077989;28;20579;-61
2022/06/20 03:25:46;;;;;;;9.90;3.90;;;;;;;14.28;79.16;100124.06;5083575;28;20505;-61
2022/06/20 03:28:14;;;;;;;8.77;3.50;;;;;;;14.17;79.48;100112.84;5081891;28;20534;-61
2022/06/20 03:30:41;;;;;;;7.90;3.37;;;;;;;13.98;81.72;100105.94;5097297;28;20478;-61
2022/06/20 03:33:11;;;;;;;10.57;4.23;;;;;;;14.02;82.07;100089.28;5082717;28;20440;-61
2022/06/20 03:35:39;;;;;;;9.20;3.83;;;;;;;13.95;82.13;100085.59;5083071;28;20467;-62
2022/06/20 03:38:08;;;;;;;9.07;3.53;;;;;;;13.98;82.46;100081.75;5098251;28;20495;-62
2022/06/20 03:40:39;;;;;;;8.10;4.13;;;;;;;13.86;82.74;100063.25;5096667;28;20554;-63
2022/06/20 03:43:08;;;;;;;8.80;4.50;;;;;;;13.92;82.43;100048.28;5100829;28;21007;-62
2022/06/20 03:45:38;;;;;;;7.47;3.90;;;;;;;14.11;82.84;100039.06;5097591;27;20466;-61
2022/06/20 03:48:09;;;;;;;10.00;4.20;;;;;;;14.16;82.19;100036.69;5084977;28;20811;-61
2022/06/20 03:50:39;;;;;;;9.43;4.10;;;;;;;14.20;82.96;100034.50;5098043;28;20546;-61
2022/06/20 03:53:11;;;;;;;9.63;3.60;;;;;;;14.03;83.05;100017.56;5101658;28;20507;-61
2022/06/20 03:55:43;;;;;;;9.57;4.23;;;;;;;14.18;82.42;100001.56;5101551;28;21011;-61
2022/06/20 03:58:13;;;;;;;8.37;3.70;;;;;;;13.86;83.44;99984.47;5102072;28;20467;-61
2022/06/20 04:00:45;;;;;;;10.40;5.17;;;;;;;13.64;84.70;99977.91;5100296;28;20498;-62
2022/06/20 04:03:18;;;;;;;11.73;5.47;;;;;;;13.68;85.33;99963.13;5102277;28;20445;-61
2022/06/20 04:05:48;;;;;;;10.33;4.27;;;;;;;13.54;85.40;99930.59;5098898;27;20899;-61
2022/06/20 04:08:20;;;;;;;10.70;5.20;;;;;;;13.54;86.43;99916.28;5091479;28;21148;-62
2022/06/20 04:11:00;;;;;;;7.43;6.00;;;;;;;13.55;86.25;99910.75;5087675;28;20487;-61
2022/06/20 04:13:33;;;;;;;13.40;5.40;;;;;;;13.59;84.46;99897.00;5102019;28;20447;-62
2022/06/20 04:16:03;;;;;;;8.90;5.07;;;;;;;13.47;85.34;99881.25;5099086;28;20474;-62
2022/06/20 04:18:32;;;;;;;7.93;4.40;;;;;;;13.34;85.34;99865.63;5101648;28;20505;-62
2022/06/20 04:21:03;;;;;;;6.73;4.30;;;;;;;13.24;84.78;99854.16;5100468;28;20504;-62
2022/06/20 04:23:32;;;;;;;11.07;4.67;;;;;;;13.31;84.26;99852.53;5084721;28;20441;-60
2022/06/20 04:26:02;;;;;;;7.50;5.20;;;;;;;13.42;83.44;99854.06;5078433;28;20515;-61
2022/06/20 04:28:36;;;;;;;11.83;5.00;;;;;;;13.47;83.34;99861.59;5069392;28;20964;-61
2022/06/20 04:31:09;;;;;;;9.13;4.53;;;;;;;13.59;83.48;99857.53;5087021;28;20495;-61
2022/06/20 04:33:39;;;;;;;8.87;4.67;;;;;;;13.52;83.67;99853.84;5081539;28;20483;-61
2022/06/20 04:36:17;;;;;;;10.20;5.40;;;;;;;13.70;83.35;99842.94;5088439;28;20497;-61
2022/06/20 04:38:47;;;;;;;11.20;4.07;;;;;;;13.29;84.43;99837.56;5107680;28;20481;-61
2022/06/20 04:41:18;;;;;;;7.30;4.00;;;;;;;13.86;82.99;99850.94;5090925;28;20504;-61
2022/06/20 04:43:51;;;;;;;7.73;4.43;;;;;;;13.78;82.48;99850.13;5080472;28;20451;-62
2022/06/20 04:46:23;;;;;;;7.07;4.60;;;;;;;13.58;82.82;99845.13;5082202;28;20467;-61
2022/06/20 04:48:50;;;;;;;8.97;4.60;;;;;;;13.48;82.07;99844.47;5089739;28;20480;-62
2022/06/20 04:51:19;;;;;;;9.60;5.30;;;;;;;13.70;82.11;99856.38;5090395;27;20490;-62
2022/06/20 04:53:47;;;;;;;9.90;4.73;;;;;;;13.78;81.17;99844.75;5094867;28;20450;-62
2022/06/20 04:56:23;;;;;;;11.23;5.10;;;;;;;13.99;80.00;99850.44;5099423;27;20510;-62
2022/06/20 04:58:54;;;;;;;9.57;4.47;;;;;;;14.13;79.39;99856.94;5097764;28;20488;-64
2022/06/20 05:01:21;;;;;;;11.73;3.80;;;;;;;14.00;78.96;99865.53;5090713;28;20474;-62
2022/06/20 05:03:55;;;;;;;10.53;4.40;;;;;;;13.96;79.11;99879.47;5080439;28;20465;-62
2022/06/20 05:06:24;;;;;;;7.90;3.90;;;;;;;14.05;79.05;99889.22;5089937;28;20550;-62
2022/06/20 05:08:52;;;;;;;11.13;4.23;;;;;;;14.11;77.98;99896.56;5100705;28;20439;-62
2022/06/20 05:11:23;;;;;;;9.57;3.23;;;;;;;14.09;78.50;99920.94;5100207;28;20482;-64
2022/06/20 05:13:53;;;;;;;9.73;3.63;;;;;;;14.11;77.58;99942.28;5105917;28;20488;-61
2022/06/20 05:16:23;;;;;;;6.30;3.63;;;;;;;13.98;76.93;99953.56;5116436;28;20494;-61
2022/06/20 05:18:53;;;;;;;8.43;3.00;;;;;;;14.04;76.90;99965.47;5101019;28;20483;-61
2022/06/20 05:21:22;;;;;;;8.53;3.00;;;;;;;13.84;76.85;99979.28;5098821;28;20471;-61
2022/06/20 05:23:51;;;;;;;5.57;2.90;;;;;;;14.01;77.35;99981.94;5086224;28;20439;-61
2022/06/20 05:26:20;;;;;;;8.53;2.60;;;;;;;14.09;76.70;99995.38;5099576;28;20475;-61
2022/06/20 05:28:49;;;;;;;8.67;2.80;;;;;;;14.20;76.36;99988.78;5103453;28;20887;-61
2022/06/20 05:31:21;;;;;;;7.23;2.37;;;;;;;14.20;77.39;100002.25;5099644;28;20491;-61
2022/06/20 05:33:53;;;;;;;9.37;3.40;;;;;;;14.27;78.80;100017.53;5099642;28;20508;-61
2022/06/20 05:36:24;;;;;;;6.70;3.10;;;;;;;14.24;77.60;100014.34;5099268;28;20479;-61
2022/06/20 05:38:53;;;;;;;5.13;2.63;;;;;;;14.31;76.56;100010.81;5100723;28;21022;-62
2022/06/20 05:41:21;;;;;;;11.53;3.37;;;;;;;14.44;76.03;100017.50;5099363;28;20474;-63
2022/06/20 05:43:48;;;;;;;5.87;2.60;;;;;;;14.23;74.69;100037.69;5099482;28;20434;-62
2022/06/20 05:46:22;;;;;;;9.47;2.87;;;;;;;14.49;75.47;100050.09;5097889;28;20491;-62
2022/06/20 05:48:51;;;;;;;5.80;3.00;;;;;;;14.11;76.97;100060.56;5100415;28;20458;-64
2022/06/20 05:51:20;;;;;;;9.33;2.60;;;;;;;14.20;77.78;100074.84;5098657;28;21042;-62
2022/06/20 05:53:49;;;;;;;7.80;2.30;;;;;;;14.32;76.30;100092.31;5100397;28;20647;-61
2022/06/20 05:56:18;;;;;;;6.70;2.77;;;;;;;14.06;76.10;100112.16;5099165;28;20474;-64
2022/06/20 05:58:46;;;;;;;9.67;3.67;;;;;;;14.07;76.93;100129.13;5099320;28;20455;-62
2022/06/20 06:01:16;;;;;;;9.93;3.57;;;;;;;14.15;77.68;100144.41;5098742;27;20479;-62
2022/06/20 06:03:48;;;;;;;8.17;2.67;;;;;;;14.08;77.52;100160.38;5100123;28;20466;-62
2022/06/20 06:06:19;;;;;;;5.70;2.60;;;;;;;14.04;76.58;100157.16;5098666;27;21099;-62
2022/06/20 06:08:50;;;;;;;11.20;2.63;;;;;;;14.03;76.72;100157.34;5099649;28;20438;-62
2022/06/20 06:11:23;;;;;;;15.73;3.37;;;;;;;13.94;76.76;100168.06;5099480;28;20528;-62
2022/06/20 06:13:53;;;;;;;9.57;2.70;;;;;;;14.08;75.78;100155.00;5098965;28;20878;-62
2022/06/20 06:19:14;;;;;;;10.30;3.10;;;;;;;14.43;73.57;100156.53;5099584;28;20486;-62
2022/06/20 06:21:41;;;;;;;5.70;2.00;;;;;;;14.61;71.17;100153.69;5099177;28;20536;-62
2022/06/20 06:24:11;;;;;;;16.43;3.27;;;;;;;14.89;70.14;100145.25;5100549;28;20485;-63
2022/06/20 06:26:40;;;;;;;9.13;2.50;;;;;;;15.31;70.53;100144.13;5098975;28;20471;-63
2022/06/20 06:29:07;;;;;;;4.87;2.03;;;;;;;15.76;68.71;100134.53;5098776;28;20450;-62
2022/06/20 06:31:40;;;;;;;10.47;2.27;;;;;;;15.70;65.77;100132.50;5098447;27;20471;-62
2022/06/20 06:34:19;;;;;;;5.20;1.90;;;;;;;16.25;66.39;100130.66;5099316;28;20492;-60
2022/06/20 06:36:49;;;;;;;5.83;1.80;;;;;;;16.81;64.03;100133.00;5097968;27;20505;-60
2022/06/20 06:39:18;;;;;;;6.50;1.93;;;;;;;16.85;61.28;100128.94;5099682;28;20512;-60
2022/06/20 06:41:47;;;;;;;10.30;2.33;;;;;;;17.62;60.55;100125.00;5098463;27;20508;-60
2022/06/20 06:44:17;;;;;;;6.57;1.80;;;;;;;17.72;58.15;100110.34;5098920;28;21008;-60
2022/06/20 06:46:45;;;;;;;6.50;2.00;;;;;;;18.74;57.39;100096.53;5096368;27;20502;-60
2022/06/20 06:49:30;;;;;;;8.00;2.60;;;;;;;18.57;56.70;100104.09;5099759;28;20446;-61
2022/06/20 06:52:02;;;;;;;11.73;1.87;;;;;;;18.73;56.33;100121.09;5096842;27;20471;-61
2022/06/20 06:54:49;;;;;;;6.07;2.00;;;;;;;18.65;56.65;100113.97;5099115;28;20424;-62
2022/06/20 06:57:21;;;;;;;9.73;2.67;;;;;;;18.09;58.18;100098.50;5098604;27;20500;-61
2022/06/20 06:59:51;;;;;;;4.00;1.93;;;;;;;17.89;59.54;100098.28;5098884;28;20531;-61
2022/06/20 07:02:21;;;;;;;8.10;2.17;;;;;;;19.37;55.31;100090.22;5097933;27;20471;-61
2022/06/20 07:04:54;;;;;;;8.87;1.83;;;;;;;20.61;51.49;100096.31;5098716;28;20449;-63
2022/06/20 07:07:24;;;;;;;6.70;2.37;;;;;;;18.97;53.96;100096.31;5098760;27;20474;-63
2022/06/20 07:09:53;;;;;;;10.83;2.70;;;;;;;19.07;56.82;100086.97;5099034;28;20952;-61
2022/06/20 07:12:24;;;;;;;6.40;2.70;;;;;;;19.45;55.43;100089.22;5097559;27;20475;-61
2022/06/20 07:14:58;;;;;;;5.70;2.00;;;;;;;19.95;55.17;100073.53;5098750;28;20442;-62
2022/06/20 07:17:29;;;;;;;9.40;2.20;;;;;;;21.72;49.08;100072.81;5100112;28;21087;-62
2022/06/20 07:19:58;;;;;;;5.87;2.33;;;;;;;22.69;46.84;100067.03;5102495;28;20862;-61
2022/06/20 07:22:25;;;;;;;8.20;2.20;;;;;;;22.68;45.78;100074.38;5102638;28;20499;-62
2022/06/20 07:24:52;;;;;;;7.60;2.37;;;;;;;21.60;48.97;100075.38;5099056;28;20461;-62
2022/06/20 07:27:23;;;;;;;7.67;2.20;;;;;;;20.61;51.86;100080.03;5102973;28;20470;-62
2022/06/20 07:29:53;;;;;;;4.87;2.37;;;;;;;19.17;56.94;100080.13;5104276;28;20480;-62
2022/06/20 07:32:22;;;;;;;7.40;2.40;;;;;;;19.42;55.01;100076.91;5102813;28;20522;-63
2022/06/20 07:34:51;;;;;;;8.93;2.40;;;;;;;19.75;53.42;100096.03;5102315;28;20483;-61
2022/06/20 07:37:21;;;;;;;7.43;2.60;;;;;;;18.88;56.14;100102.06;5103383;28;20475;-61
2022/06/20 07:39:51;;;;;;;9.30;2.77;;;;;;;18.41;58.96;100082.75;5103697;28;20509;-62
2022/06/20 07:42:22;;;;;;;9.13;2.63;;;;;;;18.29;59.30;100098.66;5101356;28;20474;-62
2022/06/20 07:44:51;;;;;;;9.40;2.80;;;;;;;17.70;60.93;100091.59;5103230;28;20475;-61
2022/06/20 07:47:20;;;;;;;7.17;2.90;;;;;;;19.05;56.39;100089.88;5101974;27;20479;-61
2022/06/20 07:49:51;;;;;;;10.70;2.50;;;;;;;20.31;52.14;100096.72;5102991;28;20479;-61
2022/06/20 07:52:21;;;;;;;8.10;3.17;;;;;;;20.97;51.52;100104.03;5103618;27;20491;-61
2022/06/20 07:54:52;;;;;;;7.80;2.50;;;;;;;23.22;45.66;100104.66;5103910;28;20455;-63
2022/06/20 07:57:20;;;;;;;6.33;2.00;;;;;;;24.71;41.76;100105.09;5102371;27;20475;-62
2022/06/20 07:59:50;;;;;;;6.47;1.77;;;;;;;26.90;37.70;100109.56;5103532;28;20482;-64
2022/06/20 08:02:20;;;;;;;7.23;2.00;;;;;;;24.66;40.40;100113.19;5102450;28;20959;-62
2022/06/20 08:04:48;;;;;;;5.40;2.33;;;;;;;25.35;38.93;100113.38;5103703;28;20435;-62
2022/06/20 08:07:20;;;;;;;6.03;2.00;;;;;;;25.51;38.62;100109.03;5102627;28;20542;-62
2022/06/20 08:09:53;;;;;;;5.53;1.77;;;;;;;22.02;45.46;100116.56;5103927;28;20449;-62
2022/06/20 08:12:26;;;;;;;7.90;2.20;;;;;;;20.77;50.46;100117.63;5096972;28;20502;-62
2022/06/20 08:14:58;;;;;;;8.90;2.90;;;;;;;19.50;52.63;100127.41;5101643;28;20454;-62
2022/06/20 08:17:26;;;;;;;5.63;2.33;;;;;;;19.15;52.96;100127.47;5101753;27;20483;-61
2022/06/20 08:19:52;;;;;;;8.77;2.37;;;;;;;19.05;54.00;100133.22;5102021;28;20584;-61
2022/06/20 08:22:23;;;;;;;7.40;2.77;;;;;;;18.91;55.61;100131.47;5103389;27;20482;-61
2022/06/20 08:24:55;;;;;;;5.20;2.27;;;;;;;20.06;52.77;100127.19;5103848;28;20423;-61
2022/06/20 08:27:28;;;;;;;6.53;2.20;;;;;;;20.61;50.99;100126.19;5101232;27;20963;-60
2022/06/20 08:30:02;;;;;;;4.63;2.20;;;;;;;21.48;49.75;100126.06;5103406;28;20469;-61
2022/06/20 08:32:33;;;;;;;8.23;2.60;;;;;;;21.83;47.08;100129.25;5102227;27;20642;-61
2022/06/20 08:35:07;;;;;;;5.87;2.30;;;;;;;21.27;48.45;100125.28;5101763;28;21028;-61
2022/06/20 08:37:36;;;;;;;6.67;2.50;;;;;;;20.67;49.48;100114.50;5102143;28;20821;-61
2022/06/20 08:40:20;;;;;;;4.50;2.03;;;;;;;20.75;49.94;100117.03;5102961;28;20521;-61
2022/06/20 08:43:05;;;;;;;7.80;2.37;;;;;;;19.02;53.12;100122.78;5100329;28;20469;-61
2022/06/20 08:45:49;;;;;;;8.03;2.13;;;;;;;18.60;54.95;100127.25;5081039;28;20482;-61
2022/06/20 08:48:48;;;;;;;3.83;2.40;;;;;;;18.78;54.72;100130.31;5080960;28;20504;-61
2022/06/20 08:52:09;;;;;;;10.50;2.33;;;;;;;18.92;55.05;100135.84;5080691;28;20507;-60
2022/06/20 08:55:10;;;;;;;4.03;1.63;;;;;;;19.01;54.90;100123.81;5098737;28;20458;-61
2022/06/20 08:57:49;;;;;;;10.37;2.90;;;;;;;18.94;54.18;100125.63;5100437;28;20501;-61
2022/06/20 09:00:19;;;;;;;5.33;2.20;;;;;;;21.61;48.81;100126.00;5100235;28;20482;-61
2022/06/20 09:03:05;;;;;;;4.00;1.97;;;;;;;22.16;46.48;100134.47;5100259;28;20450;-61
2022/06/20 09:05:57;;;;;;;7.30;2.40;;;;;;;21.84;46.05;100122.78;5100479;28;20470;-61
2022/06/20 09:08:41;;;;;;;3.63;2.00;;;;;;;20.85;46.93;100116.59;5101168;28;20450;-62
2022/06/20 09:11:21;;;;;;;10.77;2.43;;;;;;;20.53;46.11;100116.38;5099470;28;20498;-61
2022/06/20 09:14:13;;;;;;;4.30;1.90;;;;;;;20.69;46.96;100115.13;5100121;28;20530;-62
2022/06/20 09:16:51;;;;;;;4.30;1.47;;;;;;;21.21;46.25;100120.69;5098381;27;20471;-61
2022/06/20 09:19:30;;;;;;;4.60;1.73;;;;;;;23.38;41.07;100127.75;5101199;28;20940;-61
2022/06/20 09:22:16;;;;;;;4.60;1.97;;;;;;;24.64;39.36;100128.97;5100571;27;20470;-61
2022/06/20 09:24:53;;;;;;;6.97;1.60;;;;;;;25.18;37.32;100116.81;5100025;28;20443;-64
2022/06/20 09:27:24;;;;;;;4.23;1.20;;;;;;;25.45;33.27;100124.53;5099917;27;20470;-63
2022/06/20 09:30:04;;;;;;;4.90;1.40;;;;;;;26.86;33.72;100120.22;5100232;28;20508;-63
2022/06/20 09:33:08;;;;;;;5.53;1.40;;;;;;;24.71;36.13;100125.06;5099135;27;21022;-63
2022/06/20 09:35:52;;;;;;;4.33;1.43;;;;;;;23.08;37.82;100125.78;5099683;27;20500;-63
2022/06/20 09:38:31;;;;;;;3.57;1.53;;;;;;;22.82;39.41;100131.50;5099670;28;20454;-62
2022/06/20 09:41:03;;;;;;;4.30;1.30;;;;;;;22.77;40.26;100123.97;5098941;27;20508;-61
2022/06/20 09:43:39;;;;;;;3.63;1.10;;;;;;;22.30;42.08;100120.81;5100261;28;20473;-63
2022/06/20 09:46:15;;;;;;;2.37;1.20;;;;;;;23.56;39.38;100118.75;5097965;28;21096;-62
2022/06/20 09:48:47;;;;;;;7.70;1.77;;;;;;;25.87;34.79;100128.91;5100117;28;20447;-62
2022/06/20 09:51:22;;;;;;;2.20;1.10;;;;;;;25.61;31.19;100127.59;5098573;28;20482;-62
2022/06/20 09:53:59;;;;;;;2.73;1.10;;;;;;;24.24;33.91;100133.97;5099656;28;20661;-62
2022/06/20 09:56:29;;;;;;;2.73;1.07;;;;;;;23.49;36.28;100131.66;5099650;28;20481;-62
2022/06/20 09:59:04;;;;;;;2.43;1.03;;;;;;;22.54;35.63;100141.78;5099526;28;20527;-62
2022/06/20 10:01:34;;;;;;;3.93;1.20;;;;;;;21.49;39.66;100144.91;5098449;28;21015;-64
2022/06/20 10:04:08;;;;;;;3.23;1.70;;;;;;;20.69;41.54;100145.00;5100105;28;20423;-61
2022/06/20 10:06:45;;;;;;;2.70;1.47;;;;;;;22.21;40.92;100157.53;5092007;28;20976;-61
2022/06/20 10:09:16;;;;;;;6.63;1.17;;;;;;;24.60;36.48;100150.50;5100010;28;20449;-61
2022/06/20 10:11:47;;;;;;;4.63;1.40;;;;;;;24.19;35.23;100155.69;5095076;28;20868;-60
2022/06/20 10:14:22;;;;;;;3.77;1.10;;;;;;;24.38;33.94;100151.00;5097288;28;20427;-60
2022/06/20 10:16:55;;;;;;;2.43;1.40;;;;;;;24.65;33.42;100153.34;5094030;28;20473;-61
2022/06/20 10:19:27;;;;;;;1.87;1.17;;;;;;;24.43;33.37;100148.41;5093366;28;20562;-62
2022/06/20 10:22:03;;;;;;;5.10;1.10;;;;;;;24.79;33.63;100160.25;5098408;28;20473;-63
2022/06/20 10:24:48;;;;;;;3.93;1.30;;;;;;;22.88;36.72;100158.69;5099758;28;20453;-61
2022/06/20 10:27:32;;;;;;;2.67;1.33;;;;;;;22.33;38.41;100172.13;5095723;28;20539;-61
2022/06/20 10:30:08;;;;;;;5.87;1.50;;;;;;;22.36;38.11;100158.91;5098084;28;20443;-61
2022/06/20 10:32:55;;;;;;;2.63;1.20;;;;;;;22.49;37.78;100160.69;5097102;28;20490;-61
2022/06/20 10:35:33;;;;;;;5.10;1.33;;;;;;;22.60;36.01;100161.03;5096011;28;20497;-61
2022/06/20 10:38:04;;;;;;;3.17;1.40;;;;;;;22.47;37.13;100164.69;5096830;28;20987;-61
2022/06/20 10:40:35;;;;;;;4.03;1.50;;;;;;;21.85;38.16;100164.41;5096511;28;20486;-61
2022/06/20 10:43:07;;;;;;;2.27;1.40;;;;;;;22.37;39.41;100176.06;5096473;28;20468;-62
2022/06/20 10:45:41;;;;;;;2.20;1.33;;;;;;;24.24;36.99;100166.75;5095665;28;20470;-61
2022/06/20 10:48:33;;;;;;;1.93;1.27;;;;;;;25.24;32.84;100174.38;5097317;28;20451;-62
2022/06/20 10:51:02;;;;;;;3.50;1.40;;;;;;;26.28;32.11;100171.63;5086638;28;20505;-62
2022/06/20 10:53:33;;;;;;;5.73;1.60;;;;;;;24.44;34.07;100176.56;5100514;28;20431;-63
2022/06/20 10:56:07;;;;;;;3.33;1.40;;;;;;;24.53;32.29;100164.22;5100662;28;20495;-63
2022/06/20 10:58:50;;;;;;;3.47;1.77;;;;;;;24.33;32.89;100164.53;5099103;28;20499;-62
2022/06/20 11:01:20;;;;;;;3.60;1.60;;;;;;;24.06;33.47;100162.19;5096990;28;20501;-62
2022/06/20 11:04:10;;;;;;;2.97;1.30;;;;;;;23.15;34.08;100169.34;5103369;28;20500;-61
2022/06/20 11:06:49;;;;;;;2.17;1.40;;;;;;;23.37;34.14;100171.66;5082791;28;20479;-61
2022/06/20 11:09:33;;;;;;;5.33;1.70;;;;;;;24.16;33.59;100169.81;5083292;28;20428;-62
2022/06/20 11:12:04;;;;;;;4.20;1.50;;;;;;;24.26;34.11;100161.06;5101998;28;20547;-62
2022/06/20 11:14:39;;;;;;;5.07;1.57;;;;;;;22.55;35.41;100172.56;5103995;28;20443;-61
2022/06/20 11:17:17;;;;;;;7.83;2.07;;;;;;;21.94;36.67;100177.56;5100294;27;20485;-62
2022/06/20 11:19:50;;;;;;;3.33;1.90;;;;;;;23.01;36.26;100173.25;5101225;28;20501;-62
2022/06/20 11:22:34;;;;;;;3.90;1.90;;;;;;;24.34;35.53;100170.81;5103791;28;20474;-61
2022/06/20 11:25:11;;;;;;;2.50;1.53;;;;;;;24.11;34.45;100171.59;5103263;28;20446;-62
2022/06/20 11:27:50;;;;;;;2.97;1.80;;;;;;;23.31;35.06;100174.25;5101755;28;20486;-63
2022/06/20 11:30:19;;;;;;;5.67;1.97;;;;;;;23.28;36.09;100168.41;5102610;28;20446;-63
2022/06/20 11:33:02;;;;;;;5.03;1.90;;;;;;;24.25;34.72;100171.19;5104033;28;20455;-62
2022/06/20 11:35:36;;;;;;;3.33;1.80;;;;;;;25.41;34.07;100171.78;5103252;28;20986;-62
2022/06/20 11:38:19;;;;;;;4.83;2.07;;;;;;;22.62;35.54;100175.25;5103095;28;20450;-61
2022/06/20 11:40:52;;;;;;;3.80;1.70;;;;;;;23.45;35.19;100168.63;5100851;28;20506;-61
2022/06/20 11:43:40;;;;;;;3.60;1.70;;;;;;;23.49;34.32;100169.84;5103759;28;20908;-61
2022/06/20 11:46:24;;;;;;;4.83;1.67;;;;;;;22.97;33.93;100172.88;5101647;28;20531;-62
2022/06/20 11:49:01;;;;;;;2.87;2.00;;;;;;;23.16;34.93;100173.75;5101778;28;20537;-61
2022/06/20 11:51:36;;;;;;;6.23;1.80;;;;;;;22.61;34.43;100179.06;5102914;27;20565;-61
2022/06/20 11:54:10;;;;;;;2.83;2.13;;;;;;;22.30;36.76;100189.72;5103743;28;20458;-61
2022/06/20 11:56:43;;;;;;;7.57;1.77;;;;;;;23.00;33.73;100179.75;5101333;27;20509;-62